Time;durP1;ratioP1;P1;durP2;ratioP2;P2;SDS_P1;SDS_P2;PMS_P1;PMS_P2;Temp;Humidity;BMP_temperature;BMP_pressure;BME280_temperature;BME280_humidity;BME280_pressure;Samples;Min_cycle;Max_cycle;Signal;HPM_P1;HPM_P2
2021/12/24 00:01:03;;;;;;;17.37;10.60;;;3.70;99.90;;;;;;5019429;28;20212;-51
2021/12/24 00:03:30;;;;;;;22.60;10.43;;;3.70;99.90;;;;;;5015564;28;20207;-48
2021/12/24 00:05:57;;;;;;;20.33;10.43;;;3.70;99.90;;;;;;5016732;28;20207;-50
2021/12/24 00:08:24;;;;;;;22.23;11.03;;;3.70;99.90;;;;;;5023542;28;20583;-47
2021/12/24 00:10:58;;;;;;;17.27;10.70;;;3.70;99.90;;;;;;5020511;28;20233;-48
2021/12/24 00:13:25;;;;;;;19.50;9.97;;;3.70;99.90;;;;;;5023549;28;20199;-50
2021/12/24 00:16:05;;;;;;;21.27;11.03;;;3.70;99.90;;;;;;5022946;28;20206;-49
2021/12/24 00:18:41;;;;;;;20.73;10.70;;;3.80;99.90;;;;;;5020692;28;20230;-52
2021/12/24 00:35:10;;;;;;;16.57;9.57;;;3.90;99.90;;;;;;5018265;28;20269;-51
2021/12/24 00:37:38;;;;;;;19.43;9.40;;;3.90;99.90;;;;;;5019260;28;20322;-52
2021/12/24 00:40:12;;;;;;;30.67;10.23;;;3.90;99.90;;;;;;5037539;28;20230;-49
2021/12/24 00:42:43;;;;;;;19.33;9.47;;;3.90;99.90;;;;;;5041759;28;20227;-50
2021/12/24 00:45:11;;;;;;;17.63;8.97;;;3.90;99.90;;;;;;5039947;28;20257;-49
2021/12/24 00:47:39;;;;;;;18.30;9.97;;;3.90;99.90;;;;;;5027702;28;20666;-50
2021/12/24 00:50:10;;;;;;;17.17;8.50;;;3.90;99.90;;;;;;5018489;28;20917;-46
2021/12/24 00:52:53;;;;;;;17.37;8.53;;;3.90;99.90;;;;;;5027348;28;20717;-51
2021/12/24 00:55:20;;;;;;;13.13;8.50;;;4.00;99.90;;;;;;5039331;28;20207;-47
2021/12/24 00:57:49;;;;;;;19.33;9.50;;;3.90;99.90;;;;;;5042598;28;20194;-52
2021/12/24 01:00:20;;;;;;;14.87;8.37;;;4.00;99.90;;;;;;5043122;28;20231;-48
2021/12/24 01:02:49;;;;;;;13.23;8.23;;;4.00;99.90;;;;;;5043590;28;20219;-50
2021/12/24 01:05:18;;;;;;;13.83;8.47;;;4.00;99.90;;;;;;5022584;28;20207;-50
2021/12/24 01:07:46;;;;;;;16.00;9.00;;;4.00;99.90;;;;;;5030616;28;20204;-49
2021/12/24 01:10:16;;;;;;;14.90;8.20;;;4.10;99.90;;;;;;5022859;28;20285;-53
2021/12/24 01:12:43;;;;;;;14.10;8.10;;;4.10;99.90;;;;;;5023577;28;20228;-46
2021/12/24 01:15:12;;;;;;;11.73;7.50;;;4.10;99.90;;;;;;5022832;28;20927;-48
2021/12/24 01:17:44;;;;;;;12.97;8.37;;;4.00;99.90;;;;;;5027669;28;20254;-49
2021/12/24 01:20:22;;;;;;;17.03;7.83;;;4.20;99.90;;;;;;5010604;28;20232;-50
2021/12/24 01:25:38;;;;;;;12.50;8.20;;;4.20;99.90;;;;;;5027177;28;20234;-49
2021/12/24 01:28:30;;;;;;;18.53;8.67;;;4.30;99.90;;;;;;5041483;28;20310;-50
2021/12/24 01:39:21;;;;;;;15.60;9.10;;;4.30;99.90;;;;;;5030212;28;20253;-47
2021/12/24 01:44:33;;;;;;;17.77;9.93;;;4.40;99.90;;;;;;5024253;28;20204;-46
2021/12/24 01:47:07;;;;;;;14.90;9.13;;;4.40;99.90;;;;;;5030259;28;20248;-46
2021/12/24 01:49:34;;;;;;;14.33;8.53;;;4.40;99.90;;;;;;5026387;28;20641;-47
2021/12/24 01:52:03;;;;;;;16.33;9.07;;;4.40;99.90;;;;;;5016641;28;20223;-46
2021/12/24 01:54:34;;;;;;;18.40;10.03;;;4.40;99.90;;;;;;5025383;28;20287;-48
2021/12/24 01:57:01;;;;;;;14.13;9.20;;;4.40;99.90;;;;;;5022613;28;20204;-45
2021/12/24 01:59:28;;;;;;;15.63;9.80;;;4.40;99.90;;;;;;5024070;28;20243;-47
2021/12/24 02:01:54;;;;;;;14.80;9.77;;;4.50;99.90;;;;;;5020096;28;20216;-52
2021/12/24 02:04:22;;;;;;;17.47;8.73;;;4.50;99.90;;;;;;5024248;28;20669;-46
2021/12/24 02:06:49;;;;;;;19.20;10.33;;;4.50;99.90;;;;;;5024357;28;20302;-48
2021/12/24 02:09:18;;;;;;;15.50;9.40;;;4.50;99.90;;;;;;5031392;28;20192;-51
2021/12/24 02:11:45;;;;;;;15.37;9.37;;;4.50;99.90;;;;;;5022967;28;20229;-49
2021/12/24 02:14:16;;;;;;;15.87;9.53;;;4.50;99.90;;;;;;5024599;28;20206;-50
2021/12/24 02:16:58;;;;;;;18.37;10.30;;;4.50;99.90;;;;;;5023572;28;20214;-49
2021/12/24 02:30:40;;;;;;;18.07;9.63;;;4.60;99.90;;;;;;5032283;28;20221;-48
2021/12/24 02:33:08;;;;;;;17.60;9.63;;;4.60;99.90;;;;;;5025982;28;20271;-53
2021/12/24 02:35:35;;;;;;;19.47;9.73;;;4.60;99.90;;;;;;5027631;28;20657;-47
2021/12/24 02:38:05;;;;;;;15.17;9.17;;;4.60;99.90;;;;;;5011221;28;20204;-48
2021/12/24 02:40:33;;;;;;;14.43;9.73;;;4.60;99.90;;;;;;5036687;28;20583;-48
2021/12/24 02:43:00;;;;;;;15.40;9.10;;;4.60;99.90;;;;;;5019027;28;21868;-47
2021/12/24 02:45:28;;;;;;;16.73;9.47;;;4.70;99.90;;;;;;5030275;28;20204;-46
2021/12/24 02:48:23;;;;;;;16.47;9.67;;;4.70;99.90;;;;;;5025640;28;20299;-52
2021/12/24 02:56:25;;;;;;;12.27;7.87;;;4.70;99.90;;;;;;5029519;28;20204;-49
2021/12/24 02:58:52;;;;;;;17.00;9.17;;;4.70;99.90;;;;;;5015795;28;20223;-53
2021/12/24 03:01:23;;;;;;;16.87;8.87;;;4.70;99.90;;;;;;5023588;28;20248;-51
2021/12/24 03:03:51;;;;;;;11.40;8.33;;;4.70;99.90;;;;;;5035561;28;20282;-50
2021/12/24 03:06:19;;;;;;;16.60;8.83;;;4.70;99.90;;;;;;5035925;28;20531;-47
2021/12/24 03:08:47;;;;;;;13.07;8.63;;;4.70;99.90;;;;;;5016312;28;20208;-47
2021/12/24 03:11:14;;;;;;;13.03;8.23;;;4.70;99.90;;;;;;5024013;28;20226;-49
2021/12/24 03:13:42;;;;;;;14.90;9.13;;;4.70;99.90;;;;;;5027792;28;20660;-50
2021/12/24 03:16:09;;;;;;;13.90;8.60;;;4.80;99.90;;;;;;5021341;28;20321;-46
2021/12/24 03:18:38;;;;;;;12.90;8.30;;;4.80;99.90;;;;;;5031682;28;20215;-51
2021/12/24 03:21:11;;;;;;;10.73;7.23;;;4.80;99.90;;;;;;5038597;28;20937;-49
2021/12/24 03:23:41;;;;;;;9.87;7.53;;;4.80;99.90;;;;;;5024837;28;20208;-49
2021/12/24 03:26:11;;;;;;;11.27;8.00;;;4.80;99.90;;;;;;5028130;28;20950;-49
2021/12/24 03:28:38;;;;;;;10.10;7.20;;;4.80;99.90;;;;;;5024514;28;20558;-49
2021/12/24 03:31:06;;;;;;;10.67;7.80;;;4.90;99.90;;;;;;5016685;28;20263;-46
2021/12/24 03:33:35;;;;;;;11.33;6.43;;;4.90;99.90;;;;;;5041553;28;20290;-46
2021/12/24 03:36:02;;;;;;;13.37;7.60;;;4.90;99.90;;;;;;5033779;28;20287;-49
2021/12/24 03:38:29;;;;;;;12.70;7.20;;;4.90;99.90;;;;;;5030458;28;20210;-47
2021/12/24 03:40:56;;;;;;;8.97;7.33;;;4.90;99.90;;;;;;5024238;28;20218;-48
2021/12/24 03:43:24;;;;;;;11.33;7.27;;;4.90;99.90;;;;;;5029828;28;20199;-50
2021/12/24 03:45:59;;;;;;;9.10;6.87;;;4.90;99.90;;;;;;5016743;28;20291;-48
2021/12/24 03:48:39;;;;;;;11.63;7.13;;;5.00;99.90;;;;;;5027480;28;20660;-46
2021/12/24 03:51:22;;;;;;;14.10;8.10;;;5.00;99.90;;;;;;5024119;28;20223;-50
2021/12/24 03:56:36;;;;;;;10.97;6.73;;;5.00;99.90;;;;;;5025273;28;20210;-46
2021/12/24 03:59:06;;;;;;;13.50;7.67;;;5.00;99.90;;;;;;5030966;28;20183;-48
2021/12/24 04:01:51;;;;;;;10.87;7.03;;;5.00;99.90;;;;;;5025043;28;20308;-50
2021/12/24 04:04:50;;;;;;;11.83;7.53;;;5.00;99.90;;;;;;5016659;28;20215;-51
2021/12/24 04:07:45;;;;;;;13.27;8.00;;;5.00;99.90;;;;;;5033072;28;20207;-52
2021/12/24 04:10:38;;;;;;;13.87;8.23;;;5.00;99.90;;;;;;5027945;28;20290;-49
2021/12/24 04:13:28;;;;;;;13.20;8.13;;;5.00;99.90;;;;;;5016319;28;20222;-46
2021/12/24 04:15:56;;;;;;;11.50;7.50;;;5.00;99.90;;;;;;5025265;28;20655;-50
2021/12/24 04:18:36;;;;;;;14.77;8.03;;;5.00;99.90;;;;;;5026284;28;20208;-49
2021/12/24 04:26:36;;;;;;;14.00;8.50;;;5.00;99.90;;;;;;5041968;28;20260;-48
2021/12/24 04:29:03;;;;;;;13.43;8.57;;;5.00;99.90;;;;;;5018412;28;20191;-49
2021/12/24 04:31:41;;;;;;;15.10;8.57;;;5.00;99.90;;;;;;5029264;28;20212;-46
2021/12/24 04:34:36;;;;;;;17.73;9.40;;;5.00;99.90;;;;;;5014632;28;20219;-50
2021/12/24 04:51:17;;;;;;;22.63;10.27;;;5.10;99.90;;;;;;5052068;28;20259;-45
2021/12/24 05:02:17;;;;;;;29.97;10.53;;;5.10;99.90;;;;;;5049103;28;20262;-49
2021/12/24 05:04:51;;;;;;;22.50;10.13;;;5.10;99.90;;;;;;5049807;28;20202;-50
2021/12/24 05:07:50;;;;;;;22.23;11.97;;;5.10;99.90;;;;;;5056925;28;20201;-46
2021/12/24 05:10:18;;;;;;;22.20;10.57;;;5.10;99.90;;;;;;5073734;28;20230;-46
2021/12/24 05:12:46;;;;;;;18.07;10.53;;;5.10;99.90;;;;;;5070290;28;20215;-51
2021/12/24 05:15:13;;;;;;;24.80;11.97;;;5.10;99.90;;;;;;5042245;28;20285;-52
2021/12/24 05:18:11;;;;;;;23.03;11.83;;;5.10;99.90;;;;;;5077985;28;20271;-51
2021/12/24 05:23:43;;;;;;;16.50;10.03;;;5.10;99.90;;;;;;5079103;28;20275;-47
2021/12/24 05:26:09;;;;;;;20.37;10.80;;;5.00;99.90;;;;;;5067103;28;20591;-52
2021/12/24 05:28:38;;;;;;;22.30;11.43;;;5.00;99.90;;;;;;5057291;28;20217;-47
2021/12/24 05:31:06;;;;;;;19.20;10.37;;;5.00;99.90;;;;;;5047477;28;20622;-50
2021/12/24 05:33:33;;;;;;;20.17;10.53;;;5.00;99.90;;;;;;5069867;28;20264;-47
2021/12/24 05:35:59;;;;;;;16.50;10.50;;;5.00;99.90;;;;;;5067531;28;20294;-51
2021/12/24 05:38:26;;;;;;;15.97;9.00;;;4.90;99.90;;;;;;5070539;28;20802;-46
2021/12/24 05:40:53;;;;;;;14.53;7.63;;;4.90;99.90;;;;;;5059763;28;20214;-51
2021/12/24 05:43:19;;;;;;;13.00;7.27;;;4.80;99.90;;;;;;5046685;28;20206;-47
2021/12/24 05:45:48;;;;;;;8.23;5.60;;;4.70;99.90;;;;;;5044090;28;20202;-47
2021/12/24 05:48:22;;;;;;;8.37;5.47;;;4.60;99.90;;;;;;5086477;28;20918;-47
2021/12/24 05:50:51;;;;;;;7.97;4.43;;;4.50;99.90;;;;;;5043260;28;20254;-46
2021/12/24 05:53:40;;;;;;;4.37;3.60;;;4.30;99.90;;;;;;5061358;28;20207;-48
2021/12/24 05:56:11;;;;;;;4.90;2.90;;;4.10;99.90;;;;;;5041002;28;20283;-48
2021/12/24 05:58:40;;;;;;;5.63;3.00;;;3.90;99.90;;;;;;5039789;28;20219;-47
2021/12/24 06:01:09;;;;;;;3.13;2.83;;;3.70;99.90;;;;;;5028960;28;20650;-49
2021/12/24 06:03:43;;;;;;;4.67;3.10;;;3.60;99.90;;;;;;5037842;28;20198;-45
2021/12/24 06:06:10;;;;;;;5.37;3.47;;;3.50;99.90;;;;;;5051066;28;20634;-51
2021/12/24 06:08:36;;;;;;;4.17;3.13;;;3.40;99.90;;;;;;5060702;28;20186;-50
2021/12/24 06:11:03;;;;;;;5.17;3.67;;;3.40;99.90;;;;;;5057299;28;20226;-51
2021/12/24 06:13:30;;;;;;;5.67;3.80;;;3.30;99.90;;;;;;5055619;28;20274;-49
2021/12/24 06:15:56;;;;;;;4.00;3.47;;;3.20;99.90;;;;;;5064596;28;20194;-53
2021/12/24 06:18:26;;;;;;;7.07;4.13;;;3.20;99.90;;;;;;5042689;28;20190;-48
2021/12/24 06:20:54;;;;;;;5.47;3.67;;;3.10;99.90;;;;;;5058173;28;20229;-51
2021/12/24 06:23:22;;;;;;;10.03;4.30;;;3.10;99.90;;;;;;5057616;28;20199;-47
2021/12/24 06:25:50;;;;;;;5.53;4.30;;;3.00;99.90;;;;;;5061799;28;20199;-47
2021/12/24 06:28:17;;;;;;;5.97;4.40;;;3.00;99.90;;;;;;5060292;28;20694;-50
2021/12/24 06:30:44;;;;;;;5.23;4.07;;;2.90;99.90;;;;;;5057976;28;20205;-46
2021/12/24 06:33:10;;;;;;;6.20;4.37;;;2.90;99.90;;;;;;5043536;28;20212;-49
2021/12/24 06:35:39;;;;;;;7.37;4.30;;;2.80;99.90;;;;;;5060558;28;20943;-49
2021/12/24 06:38:06;;;;;;;5.57;4.43;;;2.80;99.90;;;;;;5054526;28;20213;-53
2021/12/24 06:40:33;;;;;;;7.30;3.70;;;2.80;99.90;;;;;;5061395;28;20205;-46
2021/12/24 06:42:59;;;;;;;5.87;4.07;;;2.80;99.90;;;;;;5052084;28;20199;-52
2021/12/24 06:45:26;;;;;;;6.97;4.27;;;2.70;99.90;;;;;;5056461;28;20198;-46
2021/12/24 06:47:54;;;;;;;8.07;4.53;;;2.70;99.90;;;;;;5053539;28;20679;-47
2021/12/24 06:50:22;;;;;;;5.50;3.90;;;2.70;99.90;;;;;;5055387;28;20191;-49
2021/12/24 06:52:50;;;;;;;5.97;4.17;;;2.70;99.90;;;;;;5058071;28;20229;-50
2021/12/24 06:55:17;;;;;;;5.53;4.10;;;2.60;99.90;;;;;;5056626;28;20214;-48
2021/12/24 06:57:46;;;;;;;5.10;4.17;;;2.60;99.90;;;;;;5045777;28;20575;-50
2021/12/24 07:00:17;;;;;;;8.77;4.60;;;2.60;99.90;;;;;;5029333;28;20215;-50
2021/12/24 07:02:44;;;;;;;10.63;5.30;;;2.70;99.90;;;;;;5042751;28;20214;-47
2021/12/24 07:05:11;;;;;;;8.37;4.63;;;2.60;99.90;;;;;;5055012;28;20228;-52
2021/12/24 07:07:38;;;;;;;14.30;4.90;;;2.60;99.90;;;;;;5056574;28;20210;-50
2021/12/24 07:10:07;;;;;;;6.90;4.60;;;2.60;99.90;;;;;;5062240;28;20194;-51
2021/12/24 07:12:33;;;;;;;6.07;4.13;;;2.60;99.90;;;;;;5061770;28;20969;-47
2021/12/24 07:15:00;;;;;;;8.40;4.60;;;2.50;99.90;;;;;;5059410;28;20233;-47
2021/12/24 07:17:27;;;;;;;6.73;4.73;;;2.50;99.90;;;;;;5058102;28;20788;-50
2021/12/24 07:19:54;;;;;;;5.83;4.43;;;2.50;99.90;;;;;;5046174;28;20226;-46
2021/12/24 07:22:20;;;;;;;6.27;4.10;;;2.50;99.90;;;;;;5044797;28;20226;-47
2021/12/24 07:24:47;;;;;;;5.83;3.90;;;2.50;99.90;;;;;;5056387;28;20218;-47
2021/12/24 07:27:15;;;;;;;4.17;3.73;;;2.40;99.90;;;;;;5056887;28;20211;-52
2021/12/24 07:29:42;;;;;;;4.10;3.70;;;2.40;99.90;;;;;;5063159;28;20202;-47
2021/12/24 07:32:09;;;;;;;6.90;4.13;;;2.40;99.90;;;;;;5060495;28;20215;-48
2021/12/24 07:34:35;;;;;;;5.60;4.10;;;2.40;99.90;;;;;;5043725;28;20203;-46
2021/12/24 07:37:02;;;;;;;5.73;4.27;;;2.40;99.90;;;;;;5056026;28;20210;-47
2021/12/24 07:39:29;;;;;;;8.03;4.67;;;2.40;99.90;;;;;;5053700;28;20211;-52
2021/12/24 07:41:55;;;;;;;6.30;4.00;;;2.30;99.90;;;;;;5056834;28;20226;-50
2021/12/24 07:44:24;;;;;;;5.97;4.50;;;2.30;99.90;;;;;;5059783;28;20209;-47
2021/12/24 07:46:53;;;;;;;8.33;4.73;;;2.30;99.90;;;;;;5063030;28;20195;-48
2021/12/24 07:49:30;;;;;;;5.93;4.60;;;2.30;99.90;;;;;;5040182;28;20203;-53
2021/12/24 07:52:08;;;;;;;5.77;3.97;;;2.30;99.90;;;;;;5055696;28;20230;-47
2021/12/24 07:54:37;;;;;;;6.37;4.10;;;2.30;99.90;;;;;;5054586;28;20198;-51
2021/12/24 07:57:05;;;;;;;5.23;4.07;;;2.30;99.90;;;;;;5060447;28;20206;-48
2021/12/24 07:59:37;;;;;;;6.40;4.40;;;2.30;99.90;;;;;;5059387;28;20263;-48
2021/12/24 08:02:05;;;;;;;6.33;5.00;;;2.20;99.90;;;;;;5061767;28;20230;-50
2021/12/24 08:04:32;;;;;;;7.57;5.53;;;2.20;99.90;;;;;;5045627;28;20214;-50
2021/12/24 08:07:01;;;;;;;6.83;4.70;;;2.30;99.90;;;;;;5058504;28;20198;-47
2021/12/24 08:09:27;;;;;;;7.33;5.30;;;2.20;99.90;;;;;;5048431;28;21902;-47
2021/12/24 08:11:54;;;;;;;6.90;4.90;;;2.20;99.90;;;;;;5055531;28;20226;-47
2021/12/24 08:14:21;;;;;;;8.20;5.47;;;2.20;99.90;;;;;;5055657;28;20206;-46
2021/12/24 08:16:48;;;;;;;6.40;4.70;;;2.20;99.90;;;;;;5056467;28;20199;-47
2021/12/24 08:19:17;;;;;;;8.97;5.67;;;2.20;99.90;;;;;;5057889;28;20218;-50
2021/12/24 08:21:45;;;;;;;7.07;5.63;;;2.20;99.90;;;;;;5044997;28;20226;-46
2021/12/24 08:24:12;;;;;;;7.13;5.20;;;2.20;99.90;;;;;;5052552;28;20697;-51
2021/12/24 08:26:38;;;;;;;7.33;4.87;;;2.20;99.90;;;;;;5052187;28;20698;-46
2021/12/24 08:29:05;;;;;;;5.37;4.37;;;2.10;99.90;;;;;;5059592;28;20202;-49
2021/12/24 08:31:34;;;;;;;6.87;4.80;;;2.10;99.90;;;;;;5058144;28;20225;-48
2021/12/24 08:34:03;;;;;;;6.90;4.87;;;2.10;99.90;;;;;;5061050;28;20210;-49
2021/12/24 08:36:30;;;;;;;6.33;4.87;;;2.10;99.90;;;;;;5045189;28;20331;-44
2021/12/24 08:38:56;;;;;;;7.43;5.00;;;2.10;99.90;;;;;;5056113;28;20217;-48
2021/12/24 08:41:23;;;;;;;8.60;4.87;;;2.10;99.90;;;;;;5044957;28;20226;-48
2021/12/24 08:43:50;;;;;;;7.67;5.50;;;2.10;99.90;;;;;;5057518;28;20518;-48
2021/12/24 08:46:17;;;;;;;6.07;5.00;;;2.10;99.90;;;;;;5059840;28;20210;-51
2021/12/24 08:48:44;;;;;;;7.03;4.60;;;2.10;99.90;;;;;;5054683;28;20671;-51
2021/12/24 08:51:12;;;;;;;6.07;4.53;;;2.10;99.90;;;;;;5045199;28;20406;-45
2021/12/24 08:53:39;;;;;;;5.87;5.27;;;2.10;99.90;;;;;;5056917;28;20224;-50
2021/12/24 08:56:06;;;;;;;6.83;5.10;;;2.10;99.90;;;;;;5043743;28;20937;-46
2021/12/24 08:58:33;;;;;;;7.70;5.30;;;2.10;99.90;;;;;;5046754;28;20877;-46
2021/12/24 09:01:00;;;;;;;6.53;5.00;;;2.10;99.90;;;;;;5058217;28;20221;-47
2021/12/24 09:03:26;;;;;;;7.87;6.10;;;2.10;99.90;;;;;;5053818;28;20214;-49
2021/12/24 09:05:54;;;;;;;7.00;5.30;;;2.10;99.90;;;;;;5056837;28;20836;-46
2021/12/24 09:08:22;;;;;;;8.57;5.40;;;2.00;99.90;;;;;;5044518;28;20974;-44
2021/12/24 09:10:49;;;;;;;6.77;5.30;;;2.00;99.90;;;;;;5053357;28;20218;-46
2021/12/24 09:13:16;;;;;;;10.47;6.23;;;2.10;99.90;;;;;;5050939;28;20217;-47
2021/12/24 09:15:43;;;;;;;8.37;6.13;;;2.10;99.90;;;;;;5062502;28;20198;-52
2021/12/24 09:18:10;;;;;;;8.30;6.07;;;2.00;99.90;;;;;;5053802;28;20202;-49
2021/12/24 09:20:40;;;;;;;8.67;6.00;;;2.00;99.90;;;;;;5058250;28;20215;-46
2021/12/24 09:23:09;;;;;;;7.83;5.87;;;2.00;99.90;;;;;;5045567;28;20218;-53
2021/12/24 09:25:39;;;;;;;9.13;6.23;;;2.00;99.90;;;;;;5055833;28;20206;-48
2021/12/24 09:28:06;;;;;;;8.37;5.80;;;2.00;99.90;;;;;;5048402;28;20207;-49
2021/12/24 09:30:34;;;;;;;6.90;5.80;;;1.90;99.90;;;;;;5063108;28;20206;-47
2021/12/24 09:33:01;;;;;;;9.67;6.10;;;1.90;99.90;;;;;;5061743;28;20206;-48
2021/12/24 09:35:29;;;;;;;7.60;5.90;;;1.90;99.90;;;;;;5052941;28;20198;-50
2021/12/24 09:37:58;;;;;;;10.00;5.57;;;1.90;99.90;;;;;;5048401;28;20571;-47
2021/12/24 09:40:25;;;;;;;6.53;5.13;;;1.80;99.90;;;;;;5056559;28;20221;-50
2021/12/24 09:42:53;;;;;;;9.53;5.50;;;1.80;99.90;;;;;;5038780;28;20230;-49
2021/12/24 09:45:21;;;;;;;6.37;4.60;;;1.80;99.90;;;;;;5061325;28;20233;-48
2021/12/24 09:47:47;;;;;;;7.53;5.60;;;1.70;99.90;;;;;;5061781;28;20194;-51
2021/12/24 09:50:19;;;;;;;9.10;5.23;;;1.70;99.90;;;;;;5055703;28;20198;-47
2021/12/24 09:52:46;;;;;;;6.30;4.97;;;1.70;99.90;;;;;;5049058;28;20245;-47
2021/12/24 09:55:16;;;;;;;7.10;5.00;;;1.60;99.90;;;;;;5059959;28;20225;-46
2021/12/24 09:57:43;;;;;;;6.50;5.33;;;1.60;99.90;;;;;;5058854;28;20207;-49
2021/12/24 10:00:14;;;;;;;6.50;5.17;;;1.60;99.90;;;;;;5052387;28;20215;-47
2021/12/24 10:02:45;;;;;;;6.50;4.80;;;1.60;99.90;;;;;;5064130;28;20219;-47
2021/12/24 10:05:33;;;;;;;6.10;5.17;;;1.60;99.90;;;;;;5052640;28;20882;-46
2021/12/24 10:08:02;;;;;;;6.97;5.33;;;1.60;99.90;;;;;;5050278;28;20199;-47
2021/12/24 10:10:30;;;;;;;6.97;5.20;;;1.60;99.90;;;;;;5057947;28;20394;-51
2021/12/24 10:13:17;;;;;;;7.80;5.27;;;1.60;99.90;;;;;;5055319;28;20903;-47
2021/12/24 10:15:56;;;;;;;7.07;5.10;;;1.60;99.90;;;;;;5062882;28;20195;-46
2021/12/24 10:18:35;;;;;;;6.67;5.00;;;1.60;99.90;;;;;;5056644;28;20307;-45
2021/12/24 10:21:05;;;;;;;7.13;4.90;;;1.60;99.90;;;;;;5056153;28;20229;-50
2021/12/24 10:23:51;;;;;;;7.70;5.60;;;1.60;99.90;;;;;;5063911;28;20202;-50
2021/12/24 10:26:22;;;;;;;6.17;4.93;;;1.60;99.90;;;;;;5046200;28;20210;-47
2021/12/24 10:28:51;;;;;;;6.20;4.80;;;1.60;99.90;;;;;;5058731;28;20202;-48
2021/12/24 10:31:21;;;;;;;6.90;4.63;;;1.60;99.90;;;;;;5056533;28;20217;-49
2021/12/24 10:34:10;;;;;;;8.23;5.40;;;1.60;99.90;;;;;;5052866;28;20201;-49
2021/12/24 10:36:58;;;;;;;6.63;5.37;;;1.60;99.90;;;;;;5055267;28;20202;-51
2021/12/24 10:39:26;;;;;;;7.17;5.07;;;1.60;99.90;;;;;;5045923;28;20682;-46
2021/12/24 10:41:55;;;;;;;5.90;4.83;;;1.60;99.90;;;;;;5050478;28;20221;-48
2021/12/24 10:44:25;;;;;;;6.67;5.33;;;1.70;99.90;;;;;;5053781;28;20210;-50
2021/12/24 10:47:06;;;;;;;9.10;6.00;;;1.70;99.90;;;;;;5054774;28;20618;-49
2021/12/24 10:52:45;;;;;;;9.43;5.97;;;1.70;99.90;;;;;;5041214;28;20222;-47
2021/12/24 10:55:15;;;;;;;10.77;6.27;;;1.70;99.90;;;;;;5039394;28;20202;-49
2021/12/24 10:57:44;;;;;;;20.40;7.37;;;1.70;99.90;;;;;;5055702;28;20206;-47
2021/12/24 11:00:19;;;;;;;8.70;6.10;;;1.70;99.90;;;;;;5048848;28;20221;-48
2021/12/24 11:02:51;;;;;;;8.30;6.23;;;1.70;99.90;;;;;;5054563;28;20210;-46
2021/12/24 11:05:28;;;;;;;11.10;6.33;;;1.70;99.90;;;;;;5064128;28;20205;-46
2021/12/24 11:07:57;;;;;;;9.37;6.80;;;1.70;99.90;;;;;;5034859;28;20206;-45
2021/12/24 11:10:25;;;;;;;7.67;6.23;;;1.60;99.90;;;;;;5042835;28;20550;-47
2021/12/24 11:12:54;;;;;;;9.97;7.43;;;1.60;99.90;;;;;;5056018;28;20213;-47
2021/12/24 11:15:27;;;;;;;10.67;7.23;;;1.60;99.90;;;;;;5056646;28;20201;-48
2021/12/24 11:17:58;;;;;;;10.03;7.57;;;1.60;99.90;;;;;;5055327;28;20222;-46
2021/12/24 11:20:25;;;;;;;10.13;6.93;;;1.60;99.90;;;;;;5059932;28;20218;-46
2021/12/24 11:23:00;;;;;;;13.03;7.13;;;1.60;99.90;;;;;;5054849;28;20213;-48
2021/12/24 11:25:29;;;;;;;12.20;7.77;;;1.60;99.90;;;;;;5052960;28;20206;-49
2021/12/24 11:27:56;;;;;;;12.87;7.80;;;1.60;99.90;;;;;;5052470;28;20186;-52
2021/12/24 11:30:24;;;;;;;12.73;8.23;;;1.60;99.90;;;;;;5050427;28;20198;-50
2021/12/24 11:32:51;;;;;;;11.67;8.37;;;1.60;99.90;;;;;;5052865;28;20222;-46
2021/12/24 11:35:20;;;;;;;13.50;8.23;;;1.60;99.90;;;;;;5055834;28;20204;-46
2021/12/24 11:37:48;;;;;;;12.40;8.43;;;1.60;99.90;;;;;;5046708;28;20212;-50
2021/12/24 11:40:17;;;;;;;12.60;8.07;;;1.70;99.90;;;;;;5052797;28;20225;-48
2021/12/24 11:42:51;;;;;;;17.57;8.77;;;1.70;99.90;;;;;;5043206;28;20221;-50
2021/12/24 11:45:19;;;;;;;8.30;6.97;;;1.70;99.90;;;;;;5051048;28;20202;-46
2021/12/24 11:47:46;;;;;;;12.00;8.83;;;1.70;99.90;;;;;;5046205;28;20600;-47
2021/12/24 11:50:13;;;;;;;14.97;9.37;;;1.70;99.90;;;;;;5059995;28;20189;-51
2021/12/24 11:52:42;;;;;;;12.10;8.53;;;1.70;99.90;;;;;;5062475;28;20226;-51
2021/12/24 11:55:09;;;;;;;12.37;9.23;;;1.70;99.90;;;;;;5052983;28;20221;-46
2021/12/24 11:57:49;;;;;;;14.17;8.67;;;1.60;99.90;;;;;;5029427;28;20602;-48
2021/12/24 12:00:22;;;;;;;14.70;8.50;;;1.70;99.90;;;;;;5050319;28;20366;-47
2021/12/24 12:02:50;;;;;;;14.23;9.43;;;1.70;99.90;;;;;;5052099;28;20591;-50
2021/12/24 12:05:24;;;;;;;16.27;9.20;;;1.70;99.90;;;;;;5058685;28;20274;-48
2021/12/24 12:08:13;;;;;;;14.03;9.03;;;1.70;99.90;;;;;;5059487;28;20241;-52
2021/12/24 12:10:52;;;;;;;11.90;8.43;;;1.70;99.90;;;;;;5052625;28;20205;-48
2021/12/24 12:13:53;;;;;;;16.60;10.00;;;1.70;99.90;;;;;;5040659;28;20201;-48
2021/12/24 12:16:23;;;;;;;15.10;9.67;;;1.70;99.90;;;;;;4992401;28;20224;-48
2021/12/24 12:19:04;;;;;;;15.70;9.47;;;1.70;99.90;;;;;;4985651;28;20218;-50
2021/12/24 12:21:38;;;;;;;13.37;9.73;;;1.60;99.90;;;;;;5033787;28;20241;-50
2021/12/24 12:26:50;;;;;;;16.27;10.03;;;1.70;99.90;;;;;;5051449;28;20209;-49
2021/12/24 12:29:29;;;;;;;14.27;9.97;;;1.70;99.90;;;;;;5050316;28;20263;-50
2021/12/24 12:32:01;;;;;;;14.67;10.57;;;1.70;99.90;;;;;;5050024;28;20218;-52
2021/12/24 12:34:51;;;;;;;15.70;10.63;;;1.70;99.90;;;;;;5049120;28;20556;-51
2021/12/24 12:37:20;;;;;;;15.47;10.80;;;1.70;99.90;;;;;;5058982;28;20190;-49
2021/12/24 12:39:49;;;;;;;15.83;10.60;;;1.70;99.90;;;;;;5051741;28;20198;-50
2021/12/24 12:42:18;;;;;;;16.20;11.43;;;1.70;99.90;;;;;;5061041;28;20226;-49
2021/12/24 12:44:48;;;;;;;15.73;10.93;;;1.70;99.90;;;;;;5033527;28;20205;-48
2021/12/24 12:47:16;;;;;;;14.93;10.37;;;1.60;99.90;;;;;;5051946;28;20210;-46
2021/12/24 12:49:44;;;;;;;15.80;10.77;;;1.60;99.90;;;;;;5041815;28;20199;-50
2021/12/24 12:52:21;;;;;;;17.97;12.13;;;1.60;99.90;;;;;;5061513;28;20229;-45
2021/12/24 12:54:49;;;;;;;18.97;11.10;;;1.60;99.90;;;;;;5046532;28;20196;-47
2021/12/24 12:57:21;;;;;;;21.20;12.07;;;1.60;99.90;;;;;;5054749;28;20194;-48
2021/12/24 13:00:17;;;;;;;17.17;11.60;;;1.60;99.90;;;;;;5040981;28;20199;-48
2021/12/24 13:03:10;;;;;;;15.00;10.87;;;1.60;99.90;;;;;;5051337;28;20263;-48
2021/12/24 13:06:06;;;;;;;14.77;10.17;;;1.60;99.90;;;;;;5050282;28;20722;-52
2021/12/24 13:08:38;;;;;;;16.20;10.77;;;1.60;99.90;;;;;;5063504;28;20194;-48
2021/12/24 13:11:08;;;;;;;17.50;11.27;;;1.50;99.90;;;;;;5061086;28;20931;-45
2021/12/24 13:13:50;;;;;;;19.23;11.53;;;1.50;99.90;;;;;;5063214;28;20666;-49
2021/12/24 13:16:18;;;;;;;18.03;11.40;;;1.50;99.90;;;;;;5047812;28;20237;-48
2021/12/24 13:18:53;;;;;;;20.23;11.73;;;1.50;99.90;;;;;;5061410;28;20199;-51
2021/12/24 13:24:10;;;;;;;19.60;11.20;;;1.60;99.90;;;;;;5058314;28;20220;-48
2021/12/24 13:26:37;;;;;;;21.70;12.07;;;1.50;99.90;;;;;;5054673;28;20678;-49
2021/12/24 13:29:12;;;;;;;20.97;12.70;;;1.60;99.90;;;;;;5065870;28;20578;-48
2021/12/24 13:31:40;;;;;;;22.57;12.20;;;1.60;99.90;;;;;;5043247;28;20231;-49
2021/12/24 13:34:10;;;;;;;23.27;12.87;;;1.60;99.90;;;;;;5054433;28;20721;-46
2021/12/24 13:36:37;;;;;;;26.07;13.77;;;1.60;99.90;;;;;;5048011;28;20587;-53
2021/12/24 13:39:09;;;;;;;22.60;13.33;;;1.60;99.90;;;;;;5057581;28;20202;-48
2021/12/24 13:41:36;;;;;;;26.13;13.17;;;1.60;99.90;;;;;;5053497;28;20217;-47
2021/12/24 13:44:05;;;;;;;26.40;13.33;;;1.70;99.90;;;;;;5045808;28;20208;-47
2021/12/24 13:46:34;;;;;;;25.97;14.07;;;1.70;99.90;;;;;;5057052;28;20195;-53
2021/12/24 13:49:21;;;;;;;30.57;15.37;;;1.70;99.90;;;;;;5060466;28;20277;-48
2021/12/24 13:54:37;;;;;;;27.50;14.07;;;1.70;99.90;;;;;;5063672;28;20243;-46
2021/12/24 13:57:06;;;;;;;23.93;13.33;;;1.70;99.90;;;;;;5056660;28;20211;-51
2021/12/24 13:59:35;;;;;;;22.83;13.53;;;1.70;99.90;;;;;;5061437;28;20194;-49
2021/12/24 14:02:08;;;;;;;32.13;14.67;;;1.70;99.90;;;;;;5050257;28;20230;-50
2021/12/24 14:04:34;;;;;;;30.33;14.73;;;1.70;99.90;;;;;;5061405;28;20194;-45
2021/12/24 14:07:01;;;;;;;30.83;15.10;;;1.70;99.90;;;;;;5052901;28;20210;-51
2021/12/24 14:09:31;;;;;;;25.90;13.97;;;1.70;99.90;;;;;;5062166;28;20229;-46
2021/12/24 14:12:00;;;;;;;27.87;15.03;;;1.70;99.90;;;;;;5061038;28;20314;-52
2021/12/24 14:14:49;;;;;;;28.70;13.53;;;1.70;99.90;;;;;;5060799;28;20304;-47
2021/12/24 14:17:48;;;;;;;23.97;12.90;;;1.70;99.90;;;;;;5042770;28;20225;-45
2021/12/24 14:20:15;;;;;;;25.10;13.63;;;1.70;99.90;;;;;;5052354;28;20191;-51
2021/12/24 14:22:42;;;;;;;22.67;11.90;;;1.70;99.90;;;;;;5059731;28;20240;-49
2021/12/24 14:25:15;;;;;;;27.60;13.73;;;1.70;99.90;;;;;;5050389;28;20210;-47
2021/12/24 14:27:48;;;;;;;25.73;12.30;;;1.70;99.90;;;;;;5043382;28;20206;-47
2021/12/24 14:30:20;;;;;;;21.77;11.93;;;1.70;99.90;;;;;;5060270;28;20557;-51
2021/12/24 14:32:49;;;;;;;23.00;11.33;;;1.70;99.90;;;;;;5043371;28;20308;-47
2021/12/24 14:35:20;;;;;;;21.27;11.20;;;1.70;99.90;;;;;;5063831;28;20201;-48
2021/12/24 14:37:56;;;;;;;22.87;9.80;;;1.60;99.90;;;;;;5058208;28;20205;-50